SBUL/UDI METAR and TAF weather

Enter ICAO airport designator
Station Type Date Time Source
SBUL METAR 2020/12/05 06:00 UTC NOAA

SBUL 050600Z 25008KT 9999 FEW050TCU 21/18 Q1017


Station Type Date Time Source
SBUL Decoded METAR 2020/12/05 06:00 UTC NOAA

Uberlandia , Brazil (SBUL) 18-53S 048-14W
Dec 05, 2020 - 01:00 AM EST / 2020.12.05 0600 UTC
Wind: from the WSW (250 degrees) at 9 MPH (8 KT):0
Visibility: greater than 7 mile(s):0
Sky conditions: mostly clear
Weather: Towering cumulus clouds observed
Temperature: 69 F (21 C)
Dew Point: 64 F (18 C)
Relative Humidity: 82%
Pressure (altimeter): 30.03 in. Hg (1017 hPa)
ob: SBUL 050600Z 25008KT 9999 FEW050TCU 21/18 Q1017
cycle: 6

Station Type Date Time Source
SBUL TAF 2020/12/05 06:27 UTC NOAA

TAF SBUL 050150Z 0506/0518 08005KT CAVOK TN19/0508Z TX31/0517Z
BECMG 0512/0514 14005KT FEW025 PROB40
TEMPO 0516/0518 20007KT TSRA BKN040 FEW050CB
RMK PHH

Example: see airport list